createdAt,value
2019-03-06T00:00:38.953Z,4.90
2019-03-06T00:03:07.584Z,5.10
2019-03-06T00:05:36.490Z,5.10
2019-03-06T00:08:05.125Z,5.40
2019-03-06T00:15:30.299Z,5.10
2019-03-06T00:17:58.831Z,5.00
2019-03-06T00:20:27.466Z,5.20
2019-03-06T00:22:56.096Z,5.40
2019-03-06T00:25:24.663Z,4.90
2019-03-06T00:27:53.198Z,4.80
2019-03-06T00:30:21.903Z,5.10
2019-03-06T00:32:50.441Z,5.20
2019-03-06T00:35:20.794Z,5.70
2019-03-06T00:37:49.324Z,5.80
2019-03-06T00:40:34.869Z,5.80
2019-03-06T00:43:03.471Z,5.00
2019-03-06T00:45:32.108Z,5.30
2019-03-06T00:48:00.682Z,5.60
2019-03-06T00:50:29.305Z,5.30
2019-03-06T00:52:57.881Z,5.20
2019-03-06T00:55:26.462Z,5.00
2019-03-06T00:57:55.068Z,5.00
2019-03-06T01:00:27.268Z,5.20
2019-03-06T01:02:55.880Z,5.00
2019-03-06T01:05:25.116Z,5.10
2019-03-06T01:07:53.789Z,5.10
2019-03-06T01:10:22.429Z,5.20
2019-03-06T01:12:51.100Z,5.70
2019-03-06T01:15:20.213Z,5.20
2019-03-06T01:17:49.120Z,5.80
2019-03-06T01:20:17.924Z,5.40
2019-03-06T01:22:46.638Z,5.00
2019-03-06T01:25:22.232Z,4.90
2019-03-06T01:27:50.796Z,5.30
2019-03-06T01:30:26.876Z,5.30
2019-03-06T01:33:05.908Z,5.00
2019-03-06T01:35:36.184Z,5.00
2019-03-06T01:38:22.880Z,5.00
2019-03-06T01:41:09.477Z,5.20
2019-03-06T01:43:42.344Z,5.90
2019-03-06T01:46:11.010Z,5.20
2019-03-06T01:48:39.570Z,5.40
2019-03-06T01:51:08.200Z,5.50
2019-03-06T01:53:36.737Z,5.00
2019-03-06T01:56:05.473Z,5.10
2019-03-06T01:58:34.009Z,5.20
2019-03-06T02:01:02.744Z,5.90
2019-03-06T02:03:31.313Z,5.40
2019-03-06T02:05:59.881Z,5.60
2019-03-06T02:08:28.422Z,5.00
2019-03-06T02:10:56.988Z,5.20
2019-03-06T02:13:25.598Z,5.20
2019-03-06T02:15:54.186Z,5.30
2019-03-06T02:18:22.708Z,5.30
2019-03-06T02:20:51.311Z,5.60
2019-03-06T02:23:19.885Z,5.20
2019-03-06T02:25:48.426Z,5.10
2019-03-06T02:28:17.016Z,5.20
2019-03-06T02:35:42.024Z,5.10
2019-03-06T02:38:10.669Z,5.20
2019-03-06T02:40:39.216Z,5.00
2019-03-06T02:43:07.786Z,5.20
2019-03-06T02:45:36.393Z,5.40
2019-03-06T02:48:05.106Z,5.40
2019-03-06T02:50:33.648Z,5.20
2019-03-06T02:53:02.227Z,5.30
2019-03-06T02:55:30.773Z,5.30
2019-03-06T02:58:03.946Z,5.10
2019-03-06T03:00:36.934Z,5.00
2019-03-06T03:03:10.613Z,4.60
2019-03-06T03:05:43.514Z,4.90
2019-03-06T03:08:12.327Z,4.60
2019-03-06T03:10:40.873Z,4.60
2019-03-06T03:13:09.439Z,4.50
2019-03-06T03:15:37.996Z,4.50
2019-03-06T03:18:06.635Z,4.50
2019-03-06T03:23:03.477Z,4.60
2019-03-06T03:28:19.930Z,4.50
2019-03-06T03:30:48.522Z,4.30
2019-03-06T03:33:17.067Z,4.20
2019-03-06T03:35:45.707Z,4.30
2019-03-06T03:38:14.253Z,4.30
2019-03-06T03:40:42.832Z,4.40
2019-03-06T03:43:11.375Z,4.50
2019-03-06T03:45:39.975Z,4.30
2019-03-06T03:48:08.809Z,4.20
2019-03-06T03:50:37.450Z,4.00
2019-03-06T03:55:34.210Z,4.00
2019-03-06T03:58:02.794Z,4.00
2019-03-06T04:00:31.466Z,4.00
2019-03-06T04:03:00.141Z,3.90
2019-03-06T04:05:28.786Z,4.00
2019-03-06T04:10:25.568Z,3.70
2019-03-06T04:12:54.188Z,3.80
2019-03-06T04:15:23.031Z,3.60
2019-03-06T04:20:19.830Z,3.70
2019-03-06T04:22:48.403Z,3.70
2019-03-06T04:27:45.250Z,3.50
2019-03-06T04:30:20.374Z,3.40
2019-03-06T04:32:48.918Z,3.40
2019-03-06T04:35:17.505Z,3.30
2019-03-06T04:37:46.041Z,3.30
2019-03-06T04:40:15.259Z,3.30
2019-03-06T04:42:43.904Z,3.40
2019-03-06T04:45:18.891Z,3.40
2019-03-06T04:50:16.226Z,3.20
2019-03-06T04:52:45.001Z,3.30
2019-03-06T04:55:14.795Z,3.30
2019-03-06T04:57:43.366Z,3.20
2019-03-06T05:00:16.353Z,3.40
2019-03-06T05:02:44.934Z,3.10
2019-03-06T05:05:13.541Z,3.20
2019-03-06T05:07:42.189Z,3.30
2019-03-06T05:10:12.369Z,3.30
2019-03-06T05:12:41.010Z,3.30
2019-03-06T05:17:52.424Z,3.20
2019-03-06T05:20:20.973Z,3.30
2019-03-06T05:27:46.314Z,3.10
2019-03-06T05:30:16.765Z,3.30
2019-03-06T05:32:47.985Z,3.30
2019-03-06T05:35:25.386Z,3.40
2019-03-06T05:37:57.432Z,3.30
2019-03-06T05:50:20.352Z,3.30
2019-03-06T05:52:49.054Z,3.30
2019-03-06T05:57:45.846Z,3.50
2019-03-06T06:00:17.133Z,3.60
2019-03-06T06:05:14.474Z,3.30
2019-03-06T06:07:43.082Z,3.30
2019-03-06T06:10:17.437Z,3.60
2019-03-06T06:12:45.993Z,3.40
2019-03-06T06:15:15.810Z,3.60
2019-03-06T06:17:44.458Z,3.50
2019-03-06T06:20:14.749Z,3.40
2019-03-06T06:22:45.037Z,3.50
2019-03-06T06:25:13.882Z,3.50
2019-03-06T06:27:42.461Z,3.50
2019-03-06T06:30:12.718Z,3.60
2019-03-06T06:32:41.293Z,3.60
2019-03-06T06:35:11.879Z,3.70
2019-03-06T06:37:40.794Z,3.60
2019-03-06T06:40:11.677Z,3.80
2019-03-06T06:42:40.254Z,3.80
2019-03-06T06:47:57.809Z,4.00
2019-03-06T06:50:26.425Z,4.00
2019-03-06T06:53:10.053Z,4.10
2019-03-06T06:55:41.678Z,4.10
2019-03-06T06:58:15.937Z,4.30
2019-03-06T07:00:57.753Z,4.30
2019-03-06T07:04:03.014Z,4.20
2019-03-06T07:06:36.187Z,4.50
2019-03-06T07:09:26.645Z,4.30
2019-03-06T07:11:56.865Z,4.30
2019-03-06T07:14:39.306Z,4.40
2019-03-06T07:17:21.199Z,4.40
2019-03-06T07:24:56.711Z,4.70
2019-03-06T07:27:26.931Z,5.10
2019-03-06T07:29:57.121Z,4.80
2019-03-06T07:32:43.648Z,5.60
2019-03-06T07:35:48.593Z,4.90
2019-03-06T07:38:17.249Z,5.00
2019-03-06T07:41:04.092Z,5.40
2019-03-06T07:43:49.338Z,5.30
2019-03-06T07:46:25.282Z,5.40
2019-03-06T07:48:56.237Z,5.60
2019-03-06T07:51:38.438Z,5.60
2019-03-06T07:54:17.797Z,5.80
2019-03-06T07:57:04.210Z,5.80
2019-03-06T07:59:32.779Z,5.90
2019-03-06T08:02:22.242Z,6.00
2019-03-06T08:04:53.025Z,6.10
2019-03-06T08:07:21.633Z,6.20
2019-03-06T08:12:25.926Z,6.40
2019-03-06T08:14:56.145Z,6.60
2019-03-06T08:17:26.397Z,6.70
2019-03-06T08:19:56.818Z,7.10
2019-03-06T08:22:27.006Z,7.30
2019-03-06T08:25:13.422Z,6.90
2019-03-06T08:27:41.964Z,7.00
2019-03-06T08:30:12.042Z,7.20
2019-03-06T08:35:11.076Z,7.20
2019-03-06T08:40:10.378Z,7.40
2019-03-06T08:42:38.925Z,7.60
2019-03-06T08:45:14.285Z,8.20
2019-03-06T08:48:00.897Z,7.60
2019-03-06T08:50:39.830Z,7.90
2019-03-06T08:53:10.013Z,7.80
2019-03-06T08:55:56.625Z,8.20
2019-03-06T08:58:26.805Z,8.20
2019-03-06T09:01:02.665Z,8.30
2019-03-06T09:03:45.945Z,8.40
2019-03-06T09:06:28.296Z,8.40
2019-03-06T09:09:02.301Z,8.60
2019-03-06T09:11:35.096Z,8.40
2019-03-06T09:14:21.573Z,8.50
2019-03-06T09:19:30.295Z,9.20
2019-03-06T09:22:00.514Z,8.90
2019-03-06T09:24:30.702Z,9.10
2019-03-06T09:29:36.942Z,8.60
2019-03-06T09:32:07.297Z,8.80
2019-03-06T09:34:40.537Z,9.00
2019-03-06T09:37:13.805Z,8.90
2019-03-06T09:39:59.038Z,9.30
2019-03-06T09:42:41.234Z,9.20
2019-03-06T09:45:11.761Z,9.20
2019-03-06T09:47:47.518Z,9.30
2019-03-06T09:50:23.452Z,10.00
2019-03-06T09:53:02.217Z,9.60
2019-03-06T09:58:14.351Z,9.70
2019-03-06T10:01:02.709Z,10.00
2019-03-06T10:03:49.470Z,10.00
2019-03-06T10:06:19.657Z,9.80
2019-03-06T10:09:08.170Z,9.90
2019-03-06T10:11:41.342Z,10.10
2019-03-06T10:14:29.841Z,10.10
2019-03-06T10:17:00.066Z,10.30
2019-03-06T10:19:41.985Z,10.10
2019-03-06T10:22:10.560Z,10.20
2019-03-06T10:24:39.105Z,10.30
2019-03-06T10:27:07.763Z,10.10
2019-03-06T10:29:36.674Z,10.10
2019-03-06T10:32:05.593Z,10.40
2019-03-06T10:34:34.448Z,10.50
2019-03-06T10:37:03.061Z,10.60
2019-03-06T10:39:31.662Z,10.30
2019-03-06T10:42:00.216Z,10.40
2019-03-06T10:44:29.832Z,10.30
2019-03-06T10:46:58.705Z,10.80
2019-03-06T10:49:27.649Z,10.60
2019-03-06T10:51:56.338Z,10.80
2019-03-06T10:54:24.985Z,10.60
2019-03-06T10:56:53.769Z,10.70
2019-03-06T10:59:22.422Z,10.80
2019-03-06T11:01:51.037Z,11.10
2019-03-06T11:04:27.554Z,11.20
2019-03-06T11:06:56.413Z,11.00
2019-03-06T11:09:26.249Z,11.30
2019-03-06T11:11:55.225Z,11.10
2019-03-06T11:14:23.946Z,11.60
2019-03-06T11:16:52.493Z,11.40
2019-03-06T11:21:49.633Z,11.80
2019-03-06T11:24:18.373Z,11.90
2019-03-06T11:26:47.261Z,11.60
2019-03-06T11:29:16.174Z,11.60
2019-03-06T11:31:44.893Z,11.60
2019-03-06T11:34:13.809Z,11.80
2019-03-06T11:36:42.797Z,11.90
2019-03-06T11:41:40.448Z,11.60
2019-03-06T11:44:09.469Z,11.60
2019-03-06T11:46:38.085Z,11.80
2019-03-06T11:49:07.002Z,12.00
2019-03-06T11:51:35.548Z,12.10
2019-03-06T11:54:04.672Z,12.20
2019-03-06T11:56:33.753Z,12.00
2019-03-06T12:01:31.629Z,12.20
2019-03-06T12:06:28.838Z,12.30
2019-03-06T12:08:57.424Z,12.70
2019-03-06T12:11:26.311Z,12.00
2019-03-06T12:13:55.025Z,12.20
2019-03-06T12:16:23.814Z,12.40
2019-03-06T12:21:20.686Z,12.70
2019-03-06T12:23:49.263Z,12.10
2019-03-06T12:26:17.814Z,12.10
2019-03-06T12:28:46.830Z,12.40
2019-03-06T12:31:15.445Z,12.60
2019-03-06T12:33:44.094Z,12.70
2019-03-06T12:38:41.034Z,12.40
2019-03-06T12:41:09.654Z,12.60
2019-03-06T12:43:38.479Z,12.60
2019-03-06T12:46:23.757Z,12.90
2019-03-06T12:48:57.169Z,12.50
2019-03-06T12:51:25.786Z,12.70
2019-03-06T12:53:54.435Z,12.40
2019-03-06T12:56:23.077Z,12.70
2019-03-06T12:58:51.627Z,12.90
2019-03-06T13:01:20.269Z,12.90
2019-03-06T13:03:48.821Z,12.70
2019-03-06T13:06:24.636Z,12.50
2019-03-06T13:08:50.682Z,12.60
2019-03-06T13:11:18.190Z,12.70
2019-03-06T13:13:46.738Z,12.50
2019-03-06T13:16:15.313Z,12.60
2019-03-06T13:21:12.938Z,12.80
2019-03-06T13:23:41.553Z,13.00
2019-03-06T13:26:10.860Z,12.80
2019-03-06T13:28:39.584Z,12.60
2019-03-06T13:31:08.164Z,12.70
2019-03-06T13:33:38.356Z,12.80
2019-03-06T13:36:08.210Z,12.80
2019-03-06T13:38:36.753Z,12.90
2019-03-06T13:41:05.707Z,13.00
2019-03-06T13:43:34.250Z,13.00
2019-03-06T13:46:02.970Z,12.90
2019-03-06T13:48:31.586Z,12.60
2019-03-06T13:51:00.232Z,12.60
2019-03-06T13:53:28.914Z,12.90
2019-03-06T13:55:57.500Z,13.20
2019-03-06T13:58:26.117Z,13.30
2019-03-06T14:00:54.738Z,13.00
2019-03-06T14:03:23.490Z,12.60
2019-03-06T14:05:52.042Z,13.00
2019-03-06T14:08:20.822Z,13.20
2019-03-06T14:10:49.538Z,12.90
2019-03-06T14:13:18.117Z,12.60
2019-03-06T14:15:53.566Z,12.90
2019-03-06T14:18:17.101Z,12.80
2019-03-06T14:20:45.673Z,13.00
2019-03-06T14:25:42.678Z,12.50
2019-03-06T14:28:11.258Z,12.50
2019-03-06T14:30:41.445Z,12.50
2019-03-06T14:33:10.094Z,12.50
2019-03-06T14:35:38.781Z,12.80
2019-03-06T14:38:08.093Z,12.90
2019-03-06T14:40:37.185Z,13.00
2019-03-06T14:43:07.904Z,13.00
2019-03-06T14:45:36.857Z,13.10
2019-03-06T14:48:06.577Z,13.00
2019-03-06T14:53:05.577Z,12.90
2019-03-06T14:55:34.967Z,13.00
2019-03-06T14:58:03.682Z,12.70
2019-03-06T15:00:32.298Z,12.90
2019-03-06T15:03:00.945Z,13.00
2019-03-06T15:05:29.498Z,13.00
2019-03-06T15:07:58.413Z,13.30
2019-03-06T15:10:27.036Z,13.20
2019-03-06T15:12:55.617Z,12.60
2019-03-06T15:15:24.336Z,12.50
2019-03-06T15:17:52.917Z,13.00
2019-03-06T15:20:27.609Z,12.80
2019-03-06T15:22:57.125Z,13.00
2019-03-06T15:25:28.181Z,12.90
2019-03-06T15:27:57.042Z,12.90
2019-03-06T15:32:54.162Z,12.80
2019-03-06T15:35:23.151Z,12.70
2019-03-06T15:37:51.869Z,12.30
2019-03-06T15:40:32.867Z,12.40
2019-03-06T15:43:01.572Z,12.10
2019-03-06T15:45:32.883Z,12.30
2019-03-06T15:48:01.893Z,12.10
2019-03-06T15:50:30.666Z,12.20
2019-03-06T15:52:59.321Z,12.20
2019-03-06T15:55:28.708Z,12.00
2019-03-06T15:57:57.627Z,12.20
2019-03-06T16:00:30.627Z,12.50
2019-03-06T16:05:27.829Z,12.30
2019-03-06T16:07:58.054Z,12.30
2019-03-06T16:10:27.533Z,12.00
2019-03-06T16:12:56.327Z,12.00
2019-03-06T16:15:27.147Z,12.10
2019-03-06T16:20:25.341Z,11.80
2019-03-06T16:22:53.889Z,11.80
2019-03-06T16:25:23.408Z,11.60
2019-03-06T16:27:52.029Z,11.70
2019-03-06T16:30:23.045Z,11.80
2019-03-06T16:32:51.729Z,11.50
2019-03-06T16:35:20.581Z,11.50
2019-03-06T16:37:49.194Z,11.30
2019-03-06T16:40:26.087Z,11.40
2019-03-06T16:42:55.074Z,11.10
2019-03-06T16:45:28.299Z,11.40
2019-03-06T16:47:57.081Z,11.10
2019-03-06T16:50:25.822Z,10.70
2019-03-06T16:52:54.614Z,11.20
2019-03-06T16:55:25.027Z,10.70
2019-03-06T16:57:54.008Z,11.00
2019-03-06T17:00:35.946Z,10.90
2019-03-06T17:03:09.681Z,10.50
2019-03-06T17:05:38.601Z,10.90
2019-03-06T17:08:08.288Z,10.90
2019-03-06T17:13:06.049Z,10.60
2019-03-06T17:15:34.868Z,10.70
2019-03-06T17:18:03.486Z,10.60
2019-03-06T17:20:34.574Z,10.50
2019-03-06T17:23:03.995Z,10.50
2019-03-06T17:25:32.985Z,10.40
2019-03-06T17:28:01.800Z,10.40
2019-03-06T17:30:34.747Z,10.30
2019-03-06T17:33:08.497Z,10.20
2019-03-06T17:35:37.481Z,10.20
2019-03-06T17:38:09.219Z,10.00
2019-03-06T17:40:37.902Z,9.80
2019-03-06T17:43:07.213Z,9.70
2019-03-06T17:45:38.769Z,9.80
2019-03-06T17:48:08.686Z,10.00
2019-03-06T17:50:37.355Z,9.90
2019-03-06T17:53:06.537Z,9.80
2019-03-06T17:55:35.250Z,9.40
2019-03-06T17:58:04.473Z,9.80
2019-03-06T18:00:38.037Z,9.80
2019-03-06T18:03:07.861Z,9.70
2019-03-06T18:08:04.870Z,9.20
2019-03-06T18:10:33.582Z,9.10
2019-03-06T18:13:02.266Z,9.50
2019-03-06T18:15:30.937Z,9.30
2019-03-06T18:17:59.514Z,9.10
2019-03-06T18:20:28.125Z,9.50
2019-03-06T18:22:56.697Z,9.10
2019-03-06T18:25:25.812Z,9.10
2019-03-06T18:30:23.038Z,9.20
2019-03-06T18:32:51.753Z,9.20
2019-03-06T18:35:22.138Z,9.20
2019-03-06T18:37:51.016Z,8.90
2019-03-06T18:42:48.993Z,8.90
2019-03-06T18:45:19.611Z,8.90
2019-03-06T18:47:48.390Z,8.90
2019-03-06T18:50:19.381Z,8.90
2019-03-06T18:52:48.395Z,8.70
2019-03-06T18:55:17.769Z,9.00
2019-03-06T18:57:46.552Z,8.70
2019-03-06T19:00:28.849Z,8.70
2019-03-06T19:02:57.561Z,8.30
2019-03-06T19:05:26.313Z,8.40
2019-03-06T19:07:54.930Z,8.40
2019-03-06T19:10:24.323Z,8.50
2019-03-06T19:12:53.197Z,8.40
2019-03-06T19:15:23.384Z,8.30
2019-03-06T19:17:52.256Z,8.10
2019-03-06T19:20:21.739Z,8.10
2019-03-06T19:22:51.620Z,7.70
2019-03-06T19:27:49.022Z,7.70
2019-03-06T19:30:27.407Z,7.80
2019-03-06T19:32:56.148Z,7.50
2019-03-06T19:35:26.438Z,7.60
2019-03-06T19:37:55.243Z,7.40
2019-03-06T19:40:24.230Z,7.50
2019-03-06T19:42:52.954Z,7.50
2019-03-06T19:45:22.530Z,7.40
2019-03-06T19:47:51.178Z,7.30
2019-03-06T19:50:25.672Z,7.30
2019-03-06T19:52:55.030Z,7.50
2019-03-06T19:55:24.217Z,7.40
2019-03-06T19:58:01.257Z,7.30
2019-03-06T20:00:31.440Z,7.00
2019-03-06T20:05:34.648Z,7.00
2019-03-06T20:08:15.347Z,7.30
2019-03-06T20:10:44.121Z,7.20
2019-03-06T20:13:12.936Z,7.20
2019-03-06T20:20:39.357Z,6.90
2019-03-06T20:23:08.269Z,6.80
2019-03-06T20:30:34.566Z,6.60
2019-03-06T20:33:03.213Z,6.60
2019-03-06T20:35:31.833Z,6.60
2019-03-06T20:38:00.674Z,6.60
2019-03-06T20:40:29.293Z,6.90
2019-03-06T20:42:57.905Z,6.60
2019-03-06T20:45:26.556Z,6.70
2019-03-06T20:47:55.101Z,6.80
2019-03-06T20:50:23.683Z,6.80
2019-03-06T20:52:52.688Z,6.60
2019-03-06T20:55:21.265Z,6.30
2019-03-06T20:57:49.884Z,6.30
2019-03-06T21:00:27.261Z,6.40
2019-03-06T21:02:55.865Z,6.60
2019-03-06T21:05:24.615Z,6.50
2019-03-06T21:07:53.226Z,6.50
2019-03-06T21:10:21.868Z,6.50
2019-03-06T21:12:50.481Z,6.30
2019-03-06T21:15:20.498Z,6.20
2019-03-06T21:17:49.186Z,6.10
2019-03-06T21:20:22.673Z,6.50
2019-03-06T21:25:20.437Z,6.20
2019-03-06T21:27:49.213Z,6.20
2019-03-06T21:30:24.223Z,5.90
2019-03-06T21:32:52.799Z,6.20
2019-03-06T21:37:49.653Z,6.10
2019-03-06T21:40:18.329Z,6.70
2019-03-06T21:42:47.352Z,6.10
2019-03-06T21:45:16.337Z,5.80
2019-03-06T21:47:44.902Z,5.80
2019-03-06T21:50:15.748Z,5.90
2019-03-06T21:52:44.334Z,5.80
2019-03-06T21:55:14.512Z,5.80
2019-03-06T21:57:43.150Z,5.80
2019-03-06T22:00:25.039Z,5.80
2019-03-06T22:02:53.674Z,6.20
2019-03-06T22:05:22.298Z,5.80
2019-03-06T22:07:51.491Z,5.70
2019-03-06T22:10:20.089Z,5.90
2019-03-06T22:12:48.672Z,6.00
2019-03-06T22:15:19.621Z,5.80
2019-03-06T22:17:48.203Z,5.80
2019-03-06T22:20:17.502Z,5.70
2019-03-06T22:22:46.136Z,5.70
2019-03-06T22:25:16.122Z,5.70
2019-03-06T22:27:44.767Z,5.70
2019-03-06T22:30:19.462Z,5.90
2019-03-06T22:32:48.178Z,5.40
2019-03-06T22:35:16.862Z,5.50
2019-03-06T22:37:45.514Z,5.40
2019-03-06T22:40:17.429Z,5.60
2019-03-06T22:42:46.006Z,5.50
2019-03-06T22:52:41.010Z,5.60
2019-03-06T22:55:17.758Z,5.40
2019-03-06T22:57:46.397Z,5.20
2019-03-06T23:00:30.101Z,5.20
2019-03-06T23:02:59.037Z,5.30
2019-03-06T23:05:29.626Z,5.70
2019-03-06T23:07:58.198Z,5.50
2019-03-06T23:10:26.877Z,5.80
2019-03-06T23:12:55.453Z,5.20
2019-03-06T23:15:24.071Z,5.20
2019-03-06T23:17:52.632Z,5.30
2019-03-06T23:20:21.177Z,5.50
2019-03-06T23:22:49.753Z,5.80
2019-03-06T23:25:18.465Z,5.50
2019-03-06T23:27:47.210Z,5.90
2019-03-06T23:30:17.200Z,5.10
2019-03-06T23:32:46.074Z,5.40
2019-03-06T23:35:14.613Z,5.00
2019-03-06T23:37:43.250Z,4.90
2019-03-06T23:40:12.333Z,5.10
2019-03-06T23:42:40.878Z,5.00
2019-03-06T23:45:12.530Z,5.00
2019-03-06T23:47:41.434Z,4.70
2019-03-06T23:50:12.134Z,4.90
2019-03-06T23:53:00.534Z,4.90
2019-03-06T23:55:30.795Z,5.00
2019-03-06T23:57:59.633Z,5.10
